Time;durP1;ratioP1;P1;durP2;ratioP2;P2;SDS_P1;SDS_P2;PMS_P1;PMS_P2;Temp;Humidity;BMP_temperature;BMP_pressure;BME280_temperature;BME280_humidity;BME280_pressure;Samples;Min_cycle;Max_cycle;Signal;HPM_P1;HPM_P2
2023/10/20 00:00:14;;;;;;;22.92;6.97;;;;;;;;;;4985001;28;20413;-77
2023/10/20 00:02:43;;;;;;;22.15;6.50;;;;;;;;;;4996317;28;20942;-78
2023/10/20 00:05:11;;;;;;;21.35;6.88;;;;;;;;;;5001332;28;20427;-78
2023/10/20 00:07:38;;;;;;;21.38;6.40;;;;;;;;;;5015920;28;20418;-78
2023/10/20 00:10:11;;;;;;;21.70;7.00;;;;;;;;;;5013551;28;20412;-77
2023/10/20 00:12:39;;;;;;;21.98;7.38;;;;;;;;;;5013870;28;20412;-78
2023/10/20 00:15:13;;;;;;;22.17;7.82;;;;;;;;;;5005157;28;20424;-78
2023/10/20 00:17:41;;;;;;;20.25;5.90;;;;;;;;;;4994513;28;20393;-78
2023/10/20 00:20:09;;;;;;;21.88;7.15;;;;;;;;;;4996494;28;20427;-80
2023/10/20 00:22:38;;;;;;;22.85;7.10;;;;;;;;;;5008567;28;20422;-80
2023/10/20 00:25:06;;;;;;;20.27;6.68;;;;;;;;;;5000287;28;20435;-79
2023/10/20 00:27:34;;;;;;;24.52;8.50;;;;;;;;;;4996916;28;20416;-77
2023/10/20 00:30:04;;;;;;;24.20;7.63;;;;;;;;;;5012083;28;20420;-78
2023/10/20 00:32:33;;;;;;;22.48;7.40;;;;;;;;;;4993374;28;20409;-78
2023/10/20 00:35:03;;;;;;;21.85;6.80;;;;;;;;;;5002767;28;20909;-79
2023/10/20 00:37:31;;;;;;;20.65;7.22;;;;;;;;;;4994168;28;20439;-78
2023/10/20 00:39:59;;;;;;;21.80;6.70;;;;;;;;;;5011670;28;20417;-79
2023/10/20 00:42:28;;;;;;;20.58;6.90;;;;;;;;;;4993750;28;20432;-80
2023/10/20 00:44:55;;;;;;;22.27;7.30;;;;;;;;;;4994980;28;20428;-79
2023/10/20 00:47:22;;;;;;;21.10;7.03;;;;;;;;;;4995142;28;20845;-79
2023/10/20 00:49:50;;;;;;;23.85;7.20;;;;;;;;;;4993658;28;20412;-78
2023/10/20 00:52:18;;;;;;;20.43;6.23;;;;;;;;;;4994356;28;20494;-79
2023/10/20 00:54:46;;;;;;;21.20;7.20;;;;;;;;;;5010348;28;20412;-80
2023/10/20 00:57:17;;;;;;;21.60;7.50;;;;;;;;;;4979349;28;20778;-80
2023/10/20 00:59:43;;;;;;;20.33;6.90;;;;;;;;;;4977609;28;20468;-79
2023/10/20 01:02:18;;;;;;;22.10;7.10;;;;;;;;;;4998114;28;20535;-79
2023/10/20 01:04:45;;;;;;;22.85;7.35;;;;;;;;;;4994664;28;20417;-80
2023/10/20 01:07:14;;;;;;;23.20;7.82;;;;;;;;;;5012250;28;20470;-77
2023/10/20 01:09:42;;;;;;;22.80;7.60;;;;;;;;;;5008614;28;20430;-79
2023/10/20 01:12:08;;;;;;;23.40;8.15;;;;;;;;;;4995865;28;20423;-79
2023/10/20 01:14:37;;;;;;;21.67;7.60;;;;;;;;;;4991815;28;21000;-79
2023/10/20 01:17:04;;;;;;;20.00;6.55;;;;;;;;;;4994020;28;21088;-80
2023/10/20 01:19:32;;;;;;;21.53;6.60;;;;;;;;;;4994404;28;20432;-79
2023/10/20 01:22:00;;;;;;;21.73;7.38;;;;;;;;;;5013252;28;20431;-80
2023/10/20 01:24:29;;;;;;;21.88;7.05;;;;;;;;;;5012086;28;20915;-79
2023/10/20 01:27:00;;;;;;;22.27;7.38;;;;;;;;;;4995353;28;20421;-79
2023/10/20 01:29:27;;;;;;;22.52;7.22;;;;;;;;;;5011288;28;20879;-78
2023/10/20 01:31:54;;;;;;;21.77;6.57;;;;;;;;;;4994607;28;20432;-79
2023/10/20 01:34:21;;;;;;;21.73;7.05;;;;;;;;;;4995837;28;20444;-78
2023/10/20 01:36:49;;;;;;;19.67;6.00;;;;;;;;;;4991923;28;20930;-80
2023/10/20 01:39:19;;;;;;;21.10;6.90;;;;;;;;;;4994718;28;20463;-79
2023/10/20 01:41:47;;;;;;;21.05;6.32;;;;;;;;;;4999355;28;20427;-78
2023/10/20 01:44:14;;;;;;;21.60;6.00;;;;;;;;;;4994885;28;20880;-79
2023/10/20 01:46:49;;;;;;;20.77;6.10;;;;;;;;;;4995876;28;20421;-79
2023/10/20 01:49:17;;;;;;;20.70;6.22;;;;;;;;;;4998511;28;20427;-79
2023/10/20 01:51:45;;;;;;;20.60;6.30;;;;;;;;;;4995594;28;20483;-80
2023/10/20 01:54:15;;;;;;;20.58;5.75;;;;;;;;;;4994205;28;20498;-80
2023/10/20 01:56:42;;;;;;;19.50;5.80;;;;;;;;;;4992078;28;20750;-78
2023/10/20 01:59:10;;;;;;;20.00;5.80;;;;;;;;;;4991678;28;20417;-80
2023/10/20 02:01:37;;;;;;;20.57;5.73;;;;;;;;;;4993125;28;20433;-80
2023/10/20 02:04:04;;;;;;;20.40;6.20;;;;;;;;;;4993577;28;20435;-81
2023/10/20 02:06:31;;;;;;;18.90;5.40;;;;;;;;;;4993273;28;20439;-81
2023/10/20 02:08:58;;;;;;;20.60;5.80;;;;;;;;;;4994151;28;20444;-81
2023/10/20 02:11:25;;;;;;;19.63;5.67;;;;;;;;;;4995201;28;21014;-81
2023/10/20 02:13:58;;;;;;;20.60;5.50;;;;;;;;;;4997566;28;20421;-81
2023/10/20 02:16:28;;;;;;;19.13;5.57;;;;;;;;;;4999085;28;20413;-82
2023/10/20 02:18:55;;;;;;;20.60;6.10;;;;;;;;;;4993387;28;20416;-80
2023/10/20 02:21:22;;;;;;;19.30;5.32;;;;;;;;;;4998046;28;20508;-81
2023/10/20 02:23:51;;;;;;;21.70;5.60;;;;;;;;;;5003525;28;20547;-82
2023/10/20 02:26:19;;;;;;;18.15;5.20;;;;;;;;;;4984241;28;20483;-83
2023/10/20 02:28:47;;;;;;;19.67;5.80;;;;;;;;;;5001342;28;20424;-82
2023/10/20 02:31:20;;;;;;;20.33;5.00;;;;;;;;;;4994345;28;20432;-82
2023/10/20 02:33:48;;;;;;;18.15;4.50;;;;;;;;;;5012685;28;20412;-80
2023/10/20 02:36:15;;;;;;;19.75;5.43;;;;;;;;;;5009505;28;20416;-83
2023/10/20 02:38:41;;;;;;;19.45;5.00;;;;;;;;;;4992386;28;20905;-81
2023/10/20 02:41:13;;;;;;;17.42;4.32;;;;;;;;;;4992545;28;20467;-80
2023/10/20 02:43:40;;;;;;;17.45;4.30;;;;;;;;;;5010333;28;20401;-81
2023/10/20 02:46:12;;;;;;;19.77;4.40;;;;;;;;;;4993273;28;20424;-80
2023/10/20 02:48:39;;;;;;;17.30;3.70;;;;;;;;;;4982266;28;20494;-80
2023/10/20 02:51:09;;;;;;;17.25;3.70;;;;;;;;;;4991279;28;20470;-81
2023/10/20 02:53:41;;;;;;;17.40;3.80;;;;;;;;;;4976785;28;20516;-81
2023/10/20 02:56:12;;;;;;;17.40;3.43;;;;;;;;;;5009187;28;20515;-80
2023/10/20 02:58:43;;;;;;;17.20;3.63;;;;;;;;;;4991560;28;20426;-80
2023/10/20 03:01:09;;;;;;;17.00;3.30;;;;;;;;;;4993110;28;20486;-80
2023/10/20 03:03:36;;;;;;;17.30;3.30;;;;;;;;;;4992798;28;20432;-80
2023/10/20 03:06:04;;;;;;;17.33;2.67;;;;;;;;;;4986688;28;20511;-80
2023/10/20 03:08:32;;;;;;;16.45;3.25;;;;;;;;;;5006889;28;20782;-80
2023/10/20 03:10:59;;;;;;;16.10;2.78;;;;;;;;;;4989886;28;20462;-80
2023/10/20 03:13:26;;;;;;;17.50;2.65;;;;;;;;;;5009516;28;20456;-80
2023/10/20 03:15:53;;;;;;;16.77;2.90;;;;;;;;;;4994976;28;20412;-82
2023/10/20 03:18:23;;;;;;;15.15;2.45;;;;;;;;;;4995072;28;20423;-79
2023/10/20 03:20:58;;;;;;;15.40;2.70;;;;;;;;;;4992320;28;20476;-81
2023/10/20 03:23:26;;;;;;;15.38;2.25;;;;;;;;;;5012973;28;20483;-80
2023/10/20 03:25:54;;;;;;;15.57;2.70;;;;;;;;;;4993184;28;20435;-79
2023/10/20 03:28:20;;;;;;;16.92;2.60;;;;;;;;;;4972579;28;20433;-80
2023/10/20 03:30:48;;;;;;;16.17;3.55;;;;;;;;;;4975670;28;20433;-80
2023/10/20 03:33:17;;;;;;;15.68;2.90;;;;;;;;;;4999270;28;20495;-79
2023/10/20 03:35:44;;;;;;;17.95;2.97;;;;;;;;;;4998650;28;20784;-79
2023/10/20 03:38:12;;;;;;;15.90;3.05;;;;;;;;;;4992691;28;20975;-79
2023/10/20 03:40:42;;;;;;;16.33;3.33;;;;;;;;;;4992971;28;20487;-80
2023/10/20 03:43:10;;;;;;;17.17;2.83;;;;;;;;;;4993741;28;20425;-79
2023/10/20 03:45:41;;;;;;;17.17;2.87;;;;;;;;;;5011285;28;20944;-79
2023/10/20 03:48:09;;;;;;;15.43;2.90;;;;;;;;;;5002744;28;20897;-80
2023/10/20 03:50:38;;;;;;;18.10;3.10;;;;;;;;;;5009301;28;20451;-78
2023/10/20 03:53:05;;;;;;;17.20;2.70;;;;;;;;;;4993963;28;20412;-79
2023/10/20 03:55:35;;;;;;;17.02;3.05;;;;;;;;;;4984743;28;20439;-79
2023/10/20 03:58:02;;;;;;;16.00;3.30;;;;;;;;;;5007053;28;20479;-79
2023/10/20 04:00:31;;;;;;;17.33;2.90;;;;;;;;;;4996406;28;20738;-80
2023/10/20 04:02:58;;;;;;;16.40;3.42;;;;;;;;;;4999696;28;20436;-80
2023/10/20 04:05:26;;;;;;;17.20;3.40;;;;;;;;;;5012709;28;20413;-80
2023/10/20 04:07:53;;;;;;;17.05;3.35;;;;;;;;;;4994265;28;20422;-78
2023/10/20 04:10:20;;;;;;;15.90;3.00;;;;;;;;;;4996318;28;20467;-80
2023/10/20 04:12:47;;;;;;;16.50;3.40;;;;;;;;;;4987040;28;20780;-79
2023/10/20 04:15:25;;;;;;;17.57;3.50;;;;;;;;;;4993410;28;21261;-80
2023/10/20 04:17:54;;;;;;;16.30;3.20;;;;;;;;;;4995626;28;20411;-79
2023/10/20 04:20:23;;;;;;;19.27;3.80;;;;;;;;;;5013366;28;20499;-80
2023/10/20 04:22:50;;;;;;;16.48;3.58;;;;;;;;;;4997429;28;20423;-80
2023/10/20 04:25:17;;;;;;;17.77;3.50;;;;;;;;;;5014754;28;20500;-81
2023/10/20 04:57:52;;;;;;;15.75;3.15;;;;;;;;;;4992317;28;20422;-81
2023/10/20 05:07:52;;;;;;;16.65;3.33;;;;;;;;;;5010791;28;20424;-81
2023/10/20 05:10:19;;;;;;;17.00;3.90;;;;;;;;;;5009285;28;20421;-83
2023/10/20 05:12:46;;;;;;;16.80;3.20;;;;;;;;;;5001180;28;20415;-82
2023/10/20 05:15:13;;;;;;;16.02;2.90;;;;;;;;;;5000189;28;20459;-83
2023/10/20 05:17:40;;;;;;;15.98;3.05;;;;;;;;;;5011795;28;20484;-83
2023/10/20 05:20:12;;;;;;;16.10;3.10;;;;;;;;;;4996434;28;20471;-82
2023/10/20 05:22:41;;;;;;;19.50;3.20;;;;;;;;;;5012282;28;20436;-84
2023/10/20 05:25:08;;;;;;;17.50;2.80;;;;;;;;;;4995581;28;20502;-80
2023/10/20 05:27:36;;;;;;;16.20;2.90;;;;;;;;;;4995596;28;20502;-81
2023/10/20 05:30:03;;;;;;;15.93;2.80;;;;;;;;;;4986152;28;20422;-82
2023/10/20 05:32:33;;;;;;;16.30;3.13;;;;;;;;;;4987354;28;20417;-81
2023/10/20 05:35:00;;;;;;;16.40;2.80;;;;;;;;;;5014760;28;20435;-80
2023/10/20 05:37:27;;;;;;;16.98;2.80;;;;;;;;;;5010197;28;20492;-80
2023/10/20 05:39:54;;;;;;;16.52;2.83;;;;;;;;;;5012760;28;20900;-81
2023/10/20 05:42:21;;;;;;;16.02;2.60;;;;;;;;;;4979935;28;20420;-81
2023/10/20 05:44:58;;;;;;;16.65;2.90;;;;;;;;;;4999375;28;20885;-80
2023/10/20 05:47:28;;;;;;;17.60;3.40;;;;;;;;;;5000551;28;20467;-81
2023/10/20 05:49:55;;;;;;;15.70;2.33;;;;;;;;;;4998638;28;20508;-81
2023/10/20 05:52:22;;;;;;;17.40;2.70;;;;;;;;;;4996578;28;20473;-81
2023/10/20 05:54:49;;;;;;;15.55;2.60;;;;;;;;;;4993685;28;20447;-81
2023/10/20 05:57:17;;;;;;;17.63;3.03;;;;;;;;;;4992862;28;20416;-82
2023/10/20 05:59:45;;;;;;;16.30;2.90;;;;;;;;;;5008924;28;20452;-82
2023/10/20 06:02:12;;;;;;;16.33;2.60;;;;;;;;;;5010586;28;20838;-80
2023/10/20 06:04:39;;;;;;;16.30;2.70;;;;;;;;;;4992903;28;20487;-82
2023/10/20 06:07:07;;;;;;;17.50;3.22;;;;;;;;;;5011663;28;20416;-83
2023/10/20 06:09:33;;;;;;;15.70;2.65;;;;;;;;;;4993171;28;20766;-82
2023/10/20 06:12:00;;;;;;;15.90;2.92;;;;;;;;;;5010503;28;20448;-81
2023/10/20 06:14:28;;;;;;;16.13;3.28;;;;;;;;;;4999319;28;20443;-80
2023/10/20 06:16:55;;;;;;;17.17;3.10;;;;;;;;;;5005933;28;20419;-82
2023/10/20 06:19:22;;;;;;;16.70;3.33;;;;;;;;;;4992622;28;20442;-82
2023/10/20 06:21:49;;;;;;;16.77;3.10;;;;;;;;;;4998354;28;20424;-82
2023/10/20 06:24:16;;;;;;;17.40;3.28;;;;;;;;;;5012192;28;20432;-80
2023/10/20 06:26:43;;;;;;;16.70;3.40;;;;;;;;;;4993588;28;21252;-82
2023/10/20 06:29:38;;;;;;;15.90;3.10;;;;;;;;;;4993390;28;20808;-81
2023/10/20 06:32:21;;;;;;;17.90;3.50;;;;;;;;;;4994872;28;20400;-82
2023/10/20 06:34:49;;;;;;;17.58;3.40;;;;;;;;;;4989830;28;20438;-81
2023/10/20 06:37:28;;;;;;;17.50;3.83;;;;;;;;;;4990278;28;20762;-81
2023/10/20 06:39:55;;;;;;;18.00;4.05;;;;;;;;;;5007257;28;20425;-81
2023/10/20 06:42:24;;;;;;;17.52;3.80;;;;;;;;;;4982653;28;20444;-81
2023/10/20 06:44:51;;;;;;;17.33;3.90;;;;;;;;;;5010913;28;20425;-80
2023/10/20 06:47:21;;;;;;;18.70;4.15;;;;;;;;;;4993717;28;20499;-79
2023/10/20 06:49:48;;;;;;;19.95;5.00;;;;;;;;;;5007906;28;20407;-80
2023/10/20 06:52:18;;;;;;;19.27;4.50;;;;;;;;;;4978375;28;20452;-82
2023/10/20 06:54:45;;;;;;;18.07;4.30;;;;;;;;;;5006843;28;20443;-82
2023/10/20 06:57:31;;;;;;;18.08;4.40;;;;;;;;;;4992597;28;20428;-81
2023/10/20 06:59:58;;;;;;;18.85;4.80;;;;;;;;;;4991729;28;20492;-81
2023/10/20 07:02:26;;;;;;;20.15;5.07;;;;;;;;;;4992684;28;20409;-81
2023/10/20 07:04:53;;;;;;;19.55;4.43;;;;;;;;;;4992823;28;20431;-82
2023/10/20 07:07:19;;;;;;;18.67;4.60;;;;;;;;;;4974613;28;20497;-82
2023/10/20 07:09:46;;;;;;;21.80;4.80;;;;;;;;;;4989907;28;20438;-81
2023/10/20 07:12:14;;;;;;;20.37;5.23;;;;;;;;;;5011903;28;20409;-81
2023/10/20 07:14:42;;;;;;;18.92;5.20;;;;;;;;;;5010498;28;20487;-82
2023/10/20 07:17:09;;;;;;;20.88;4.90;;;;;;;;;;4992870;28;21020;-83
2023/10/20 07:19:37;;;;;;;21.60;5.30;;;;;;;;;;5010556;28;20860;-82
2023/10/20 07:22:04;;;;;;;20.38;5.28;;;;;;;;;;5010224;28;20503;-82
2023/10/20 07:24:30;;;;;;;19.30;5.20;;;;;;;;;;4996890;28;20428;-81
2023/10/20 07:26:57;;;;;;;20.70;5.30;;;;;;;;;;4996474;28;20769;-82
2023/10/20 07:29:24;;;;;;;20.20;5.65;;;;;;;;;;5011259;28;20416;-82
2023/10/20 07:31:51;;;;;;;20.63;5.43;;;;;;;;;;5000070;28;20419;-83
2023/10/20 07:34:18;;;;;;;20.75;5.80;;;;;;;;;;5014472;28;20434;-80
2023/10/20 07:36:46;;;;;;;21.00;6.05;;;;;;;;;;5004449;28;20424;-81
2023/10/20 07:39:18;;;;;;;20.27;6.03;;;;;;;;;;5014035;28;20401;-80
2023/10/20 07:41:45;;;;;;;21.17;6.32;;;;;;;;;;5015672;28;20413;-81
2023/10/20 07:44:12;;;;;;;20.20;6.30;;;;;;;;;;4997821;28;20759;-81
2023/10/20 07:46:40;;;;;;;20.90;5.72;;;;;;;;;;4996967;28;20412;-83
2023/10/20 07:49:08;;;;;;;20.27;5.60;;;;;;;;;;4997475;28;20409;-82
2023/10/20 07:51:35;;;;;;;20.95;6.18;;;;;;;;;;4995827;28;20420;-82
2023/10/20 07:54:03;;;;;;;23.45;6.47;;;;;;;;;;5013211;28;20927;-83
2023/10/20 07:56:30;;;;;;;19.73;6.25;;;;;;;;;;4996398;28;20515;-81
2023/10/20 07:58:57;;;;;;;21.05;6.68;;;;;;;;;;5002070;28;20855;-81
2023/10/20 08:01:23;;;;;;;20.85;6.63;;;;;;;;;;5013350;28;20403;-83
2023/10/20 08:03:50;;;;;;;21.03;6.23;;;;;;;;;;4997333;28;20428;-81
2023/10/20 08:06:17;;;;;;;21.35;6.70;;;;;;;;;;4995712;28;20412;-81
2023/10/20 08:08:44;;;;;;;21.13;6.22;;;;;;;;;;5000377;28;20437;-81
2023/10/20 08:11:12;;;;;;;21.88;7.65;;;;;;;;;;5002387;28;20440;-81
2023/10/20 08:13:39;;;;;;;22.70;6.88;;;;;;;;;;5010376;28;20412;-80
2023/10/20 08:16:06;;;;;;;21.48;6.57;;;;;;;;;;5003634;28;20428;-81
2023/10/20 08:18:33;;;;;;;21.25;6.85;;;;;;;;;;5003849;28;20861;-81
2023/10/20 08:21:04;;;;;;;22.83;7.03;;;;;;;;;;5000624;28;20419;-79
2023/10/20 08:23:31;;;;;;;22.13;6.95;;;;;;;;;;4996225;28;20479;-82
2023/10/20 08:25:57;;;;;;;21.98;6.53;;;;;;;;;;4995608;28;20465;-80
2023/10/20 08:28:26;;;;;;;20.92;7.32;;;;;;;;;;5013474;28;20412;-81
2023/10/20 08:31:02;;;;;;;21.92;7.32;;;;;;;;;;4995699;28;20932;-80
2023/10/20 08:33:29;;;;;;;23.95;7.88;;;;;;;;;;4995535;28;20409;-82
2023/10/20 08:35:56;;;;;;;22.30;8.10;;;;;;;;;;5014016;28;20439;-82
2023/10/20 08:38:22;;;;;;;23.20;7.38;;;;;;;;;;5000713;28;20444;-81
2023/10/20 08:40:49;;;;;;;22.00;6.93;;;;;;;;;;4989886;28;20416;-82
2023/10/20 08:43:39;;;;;;;23.50;7.20;;;;;;;;;;5020929;28;20417;-84
2023/10/20 08:46:08;;;;;;;25.13;7.22;;;;;;;;;;5023654;28;20428;-85
2023/10/20 08:48:36;;;;;;;20.77;6.43;;;;;;;;;;5002508;28;20475;-86
2023/10/20 08:51:03;;;;;;;25.20;7.47;;;;;;;;;;5003417;28;20873;-86
2023/10/20 08:53:31;;;;;;;21.38;6.30;;;;;;;;;;4999015;28;20474;-86
2023/10/20 08:55:58;;;;;;;22.10;6.65;;;;;;;;;;5015501;28;20907;-86
2023/10/20 08:58:27;;;;;;;22.40;6.28;;;;;;;;;;4996980;28;20829;-85
2023/10/20 09:00:55;;;;;;;20.10;6.60;;;;;;;;;;4998063;28;20915;-84
2023/10/20 09:03:25;;;;;;;20.88;6.35;;;;;;;;;;5004375;28;20459;-86
2023/10/20 09:05:52;;;;;;;22.52;7.13;;;;;;;;;;4998654;28;20419;-86
2023/10/20 09:08:20;;;;;;;24.48;7.10;;;;;;;;;;4991950;28;20477;-84
2023/10/20 09:10:46;;;;;;;24.08;7.75;;;;;;;;;;5023642;28;20412;-84
2023/10/20 09:13:13;;;;;;;24.08;8.30;;;;;;;;;;5006126;28;20419;-84
2023/10/20 09:15:40;;;;;;;26.08;8.70;;;;;;;;;;4998908;28;20885;-83
2023/10/20 09:18:08;;;;;;;25.02;9.60;;;;;;;;;;4996812;28;20416;-82
2023/10/20 09:20:35;;;;;;;28.48;8.65;;;;;;;;;;4999060;28;20470;-81
2023/10/20 09:23:07;;;;;;;29.45;10.88;;;;;;;;;;5008482;28;20416;-82
2023/10/20 09:25:36;;;;;;;28.63;11.43;;;;;;;;;;5011978;28;20456;-81
2023/10/20 09:28:03;;;;;;;25.77;9.30;;;;;;;;;;4999968;28;20500;-82
2023/10/20 09:30:29;;;;;;;26.15;8.48;;;;;;;;;;5013502;28;20774;-84
2023/10/20 09:32:56;;;;;;;25.90;9.38;;;;;;;;;;4995917;28;20508;-82
2023/10/20 09:35:25;;;;;;;23.00;7.93;;;;;;;;;;4997144;28;20451;-83
2023/10/20 09:37:54;;;;;;;21.75;7.10;;;;;;;;;;4991170;28;20979;-84
2023/10/20 09:40:21;;;;;;;22.23;7.00;;;;;;;;;;5016730;28;20444;-82
2023/10/20 09:42:54;;;;;;;22.35;6.10;;;;;;;;;;5017633;28;20492;-82
2023/10/20 09:45:28;;;;;;;21.20;7.15;;;;;;;;;;5013808;28;20426;-84
2023/10/20 09:47:57;;;;;;;20.95;6.60;;;;;;;;;;4994596;28;20417;-84
2023/10/20 09:50:26;;;;;;;24.67;6.35;;;;;;;;;;5006366;28;20419;-84
2023/10/20 09:52:53;;;;;;;23.30;7.50;;;;;;;;;;5020383;28;20496;-84
2023/10/20 09:55:20;;;;;;;19.80;6.10;;;;;;;;;;4979676;28;20424;-85
2023/10/20 09:57:47;;;;;;;21.20;5.90;;;;;;;;;;5016364;28;20459;-84
2023/10/20 10:00:16;;;;;;;20.83;6.93;;;;;;;;;;5009267;28;20416;-85
2023/10/20 10:02:43;;;;;;;19.95;6.35;;;;;;;;;;5001126;28;20452;-86
2023/10/20 10:05:10;;;;;;;21.55;6.03;;;;;;;;;;5013941;28;20425;-85
2023/10/20 10:07:38;;;;;;;21.40;6.25;;;;;;;;;;4994362;28;20959;-87
2023/10/20 10:10:06;;;;;;;21.17;6.60;;;;;;;;;;5002032;28;20413;-86
2023/10/20 10:12:34;;;;;;;21.92;6.53;;;;;;;;;;5002354;28;20412;-85
2023/10/20 10:15:05;;;;;;;19.70;6.10;;;;;;;;;;5014956;28;20424;-87
2023/10/20 10:17:42;;;;;;;19.30;6.30;;;;;;;;;;4999047;28;20490;-85
2023/10/20 10:20:17;;;;;;;20.52;6.07;;;;;;;;;;4994592;28;20906;-83
2023/10/20 10:22:45;;;;;;;20.15;5.78;;;;;;;;;;4984227;28;20903;-86
2023/10/20 10:25:12;;;;;;;21.60;6.45;;;;;;;;;;4998534;28;20428;-84
2023/10/20 10:27:39;;;;;;;20.87;6.17;;;;;;;;;;5011957;28;20451;-85
2023/10/20 10:30:06;;;;;;;19.77;5.93;;;;;;;;;;5020454;28;20434;-85
2023/10/20 10:32:33;;;;;;;19.58;5.90;;;;;;;;;;4995350;28;20406;-84
2023/10/20 10:35:03;;;;;;;20.38;6.65;;;;;;;;;;4997697;28;20968;-86
2023/10/20 10:37:34;;;;;;;21.63;6.43;;;;;;;;;;5008514;28;20417;-82
2023/10/20 10:40:10;;;;;;;22.08;6.63;;;;;;;;;;4995301;28;20405;-86
2023/10/20 10:42:38;;;;;;;21.88;6.30;;;;;;;;;;4991599;28;20956;-83
2023/10/20 10:45:14;;;;;;;18.65;5.10;;;;;;;;;;4992683;28;20483;-82
2023/10/20 10:47:41;;;;;;;19.17;5.40;;;;;;;;;;4992016;28;20895;-84
2023/10/20 10:50:10;;;;;;;19.15;5.63;;;;;;;;;;4993365;28;20412;-82
2023/10/20 10:52:37;;;;;;;19.75;5.78;;;;;;;;;;4994978;28;20916;-84
2023/10/20 10:55:04;;;;;;;20.65;5.97;;;;;;;;;;5011104;28;20408;-83
2023/10/20 10:57:33;;;;;;;20.58;5.60;;;;;;;;;;4993932;28;20512;-83
2023/10/20 11:00:00;;;;;;;20.20;6.00;;;;;;;;;;4992302;28;20417;-82
2023/10/20 11:02:28;;;;;;;19.10;5.38;;;;;;;;;;5010875;28;20885;-83
2023/10/20 11:04:54;;;;;;;18.40;5.00;;;;;;;;;;4995385;28;20496;-83
2023/10/20 11:07:22;;;;;;;21.03;6.40;;;;;;;;;;4998218;28;20423;-83
2023/10/20 11:09:49;;;;;;;21.50;6.80;;;;;;;;;;4997485;28;20412;-81
2023/10/20 11:12:17;;;;;;;19.30;6.07;;;;;;;;;;5015011;28;20409;-82
2023/10/20 11:14:46;;;;;;;20.08;6.28;;;;;;;;;;5012657;28;20437;-80
2023/10/20 11:17:14;;;;;;;19.60;5.60;;;;;;;;;;4995168;28;20422;-81
2023/10/20 11:19:41;;;;;;;19.10;5.70;;;;;;;;;;5013781;28;20409;-82
2023/10/20 11:22:13;;;;;;;19.10;5.63;;;;;;;;;;5015045;28;20438;-81
2023/10/20 11:24:40;;;;;;;20.83;5.85;;;;;;;;;;4995647;28;20420;-80
2023/10/20 11:27:10;;;;;;;20.08;5.90;;;;;;;;;;5005430;28;20567;-80
2023/10/20 11:29:40;;;;;;;21.02;6.40;;;;;;;;;;5009854;28;20412;-80
2023/10/20 11:32:25;;;;;;;19.08;5.72;;;;;;;;;;4998594;28;20412;-80
2023/10/20 11:34:53;;;;;;;19.58;5.80;;;;;;;;;;5014144;28;20404;-80
2023/10/20 11:37:19;;;;;;;19.40;6.13;;;;;;;;;;4980956;28;20421;-79
2023/10/20 11:39:46;;;;;;;19.77;6.03;;;;;;;;;;5000659;28;20900;-81
2023/10/20 11:42:13;;;;;;;21.27;6.00;;;;;;;;;;5003536;28;20409;-81
2023/10/20 11:44:40;;;;;;;19.33;5.82;;;;;;;;;;5013902;28;20426;-82
2023/10/20 11:47:06;;;;;;;19.53;5.70;;;;;;;;;;4995984;28;20882;-82
2023/10/20 11:49:34;;;;;;;19.52;5.85;;;;;;;;;;5014826;28;20743;-80
2023/10/20 11:52:02;;;;;;;21.75;5.85;;;;;;;;;;4999379;28;20431;-81
2023/10/20 11:54:30;;;;;;;18.58;5.55;;;;;;;;;;4995412;28;20419;-81
2023/10/20 11:56:57;;;;;;;18.90;5.60;;;;;;;;;;4996686;28;20503;-81
2023/10/20 11:59:23;;;;;;;20.20;5.43;;;;;;;;;;5006293;28;20761;-81
2023/10/20 12:01:50;;;;;;;21.73;5.35;;;;;;;;;;5010697;28;20463;-80
2023/10/20 12:04:17;;;;;;;18.88;4.93;;;;;;;;;;5017010;28;20917;-80
2023/10/20 12:06:45;;;;;;;20.13;5.50;;;;;;;;;;4997396;28;20527;-81
2023/10/20 12:09:14;;;;;;;20.45;5.70;;;;;;;;;;4999094;28;20824;-80
2023/10/20 12:11:41;;;;;;;22.33;5.25;;;;;;;;;;5015784;28;20840;-81
2023/10/20 12:14:09;;;;;;;20.67;5.68;;;;;;;;;;5009615;28;20407;-81
2023/10/20 12:16:36;;;;;;;23.80;5.65;;;;;;;;;;5012989;28;20404;-81
2023/10/20 12:19:05;;;;;;;20.58;5.43;;;;;;;;;;5002141;28;20431;-80
2023/10/20 12:21:32;;;;;;;21.33;5.83;;;;;;;;;;5001656;28;20511;-80
2023/10/20 12:24:00;;;;;;;19.83;5.50;;;;;;;;;;4995711;28;20472;-80
2023/10/20 12:26:27;;;;;;;23.13;5.53;;;;;;;;;;4993891;28;20468;-80
2023/10/20 12:28:55;;;;;;;18.58;5.03;;;;;;;;;;4997348;28;20907;-81
2023/10/20 12:31:22;;;;;;;20.00;5.80;;;;;;;;;;4997253;28;20463;-81
2023/10/20 12:33:48;;;;;;;19.58;5.40;;;;;;;;;;4997409;28;20527;-80
2023/10/20 12:36:18;;;;;;;20.85;6.13;;;;;;;;;;4995838;28;20413;-77
2023/10/20 12:38:45;;;;;;;19.52;6.05;;;;;;;;;;4984790;28;20959;-80
2023/10/20 12:41:16;;;;;;;18.35;4.90;;;;;;;;;;4995330;28;20412;-81
2023/10/20 12:43:44;;;;;;;19.38;5.72;;;;;;;;;;5010739;28;20439;-81
2023/10/20 12:46:11;;;;;;;18.73;5.00;;;;;;;;;;4982801;28;20517;-80
2023/10/20 12:48:38;;;;;;;19.43;5.83;;;;;;;;;;5014846;28;20444;-81
2023/10/20 12:51:08;;;;;;;20.17;5.90;;;;;;;;;;4993707;28;20412;-80
2023/10/20 12:53:35;;;;;;;19.95;5.55;;;;;;;;;;4997689;28;20444;-80
2023/10/20 12:56:01;;;;;;;19.63;5.18;;;;;;;;;;4995151;28;20416;-77
2023/10/20 12:58:29;;;;;;;20.00;5.60;;;;;;;;;;4993175;28;20441;-79
2023/10/20 13:00:57;;;;;;;20.42;5.10;;;;;;;;;;4994184;28;20490;-80
2023/10/20 13:03:24;;;;;;;19.55;5.80;;;;;;;;;;5013163;28;20416;-80
2023/10/20 13:05:50;;;;;;;21.30;5.95;;;;;;;;;;5001445;28;20959;-77
2023/10/20 13:08:17;;;;;;;20.52;5.90;;;;;;;;;;5015885;28;20412;-80
2023/10/20 13:10:46;;;;;;;19.10;6.28;;;;;;;;;;5006630;28;20448;-80
2023/10/20 13:13:12;;;;;;;20.25;5.82;;;;;;;;;;5004738;28;20441;-80
2023/10/20 13:15:44;;;;;;;19.25;5.60;;;;;;;;;;4997718;28;20436;-78
2023/10/20 13:18:15;;;;;;;18.40;5.10;;;;;;;;;;5000384;28;20808;-80
2023/10/20 13:20:43;;;;;;;20.92;5.72;;;;;;;;;;5003158;28;20470;-77
2023/10/20 13:23:12;;;;;;;20.00;6.37;;;;;;;;;;5006895;28;20464;-79
2023/10/20 13:25:39;;;;;;;19.80;6.20;;;;;;;;;;5007120;28;20421;-79
2023/10/20 13:28:05;;;;;;;20.33;5.53;;;;;;;;;;4987563;28;20436;-80
2023/10/20 13:30:32;;;;;;;19.85;5.60;;;;;;;;;;5005720;28;20448;-78
2023/10/20 13:33:03;;;;;;;20.85;5.90;;;;;;;;;;5020091;28;20436;-77
2023/10/20 13:35:34;;;;;;;20.90;6.32;;;;;;;;;;5019730;28;20416;-79
2023/10/20 13:38:00;;;;;;;20.30;5.90;;;;;;;;;;4999619;28;21425;-78
2023/10/20 13:40:27;;;;;;;19.48;5.88;;;;;;;;;;5017854;28;20413;-77
2023/10/20 13:42:54;;;;;;;19.17;5.80;;;;;;;;;;5012371;28;20427;-78
2023/10/20 13:45:21;;;;;;;18.70;5.00;;;;;;;;;;5005443;28;20447;-80
2023/10/20 13:47:48;;;;;;;19.58;5.40;;;;;;;;;;5018840;28;20472;-79
2023/10/20 13:50:17;;;;;;;18.30;5.23;;;;;;;;;;5003271;28;20428;-78
2023/10/20 13:52:45;;;;;;;19.45;4.95;;;;;;;;;;5019536;28;20416;-77
2023/10/20 13:55:12;;;;;;;19.77;5.40;;;;;;;;;;4999162;28;20440;-80
2023/10/20 13:57:39;;;;;;;19.75;4.80;;;;;;;;;;5006766;28;20404;-80
2023/10/20 14:00:07;;;;;;;19.17;5.57;;;;;;;;;;4989716;28;20413;-80
2023/10/20 14:02:34;;;;;;;20.95;5.43;;;;;;;;;;5008266;28;20428;-79
2023/10/20 14:05:00;;;;;;;19.63;5.43;;;;;;;;;;4998105;28;20410;-78
2023/10/20 14:07:28;;;;;;;19.95;5.00;;;;;;;;;;5017165;28;20417;-80
2023/10/20 14:09:55;;;;;;;19.13;4.43;;;;;;;;;;4999777;28;20452;-77
2023/10/20 14:12:22;;;;;;;16.80;3.05;;;;;;;;;;4991689;28;20526;-79
2023/10/20 14:14:48;;;;;;;15.20;1.90;;;;;;;;;;4991525;28;20442;-80
2023/10/20 14:17:15;;;;;;;15.10;2.00;;;;;;;;;;5016267;28;20412;-78
2023/10/20 14:19:41;;;;;;;15.43;2.60;;;;;;;;;;5003157;28;20504;-78
2023/10/20 14:22:09;;;;;;;17.45;2.03;;;;;;;;;;5018739;28;20495;-77
2023/10/20 14:24:37;;;;;;;14.90;1.90;;;;;;;;;;5013387;28;20914;-80
2023/10/20 14:27:03;;;;;;;15.23;1.80;;;;;;;;;;5017448;28;20489;-80
2023/10/20 14:29:30;;;;;;;15.10;2.03;;;;;;;;;;5002009;28;20412;-78
2023/10/20 14:31:57;;;;;;;15.00;1.55;;;;;;;;;;5019393;28;20463;-78
2023/10/20 14:34:24;;;;;;;14.15;1.38;;;;;;;;;;5013143;28;20463;-77
2023/10/20 14:36:50;;;;;;;14.20;1.30;;;;;;;;;;5016766;28;20413;-78
2023/10/20 14:39:17;;;;;;;14.07;1.50;;;;;;;;;;5002782;28;20417;-79
2023/10/20 14:41:45;;;;;;;14.30;1.30;;;;;;;;;;4999048;28;20834;-78
2023/10/20 14:44:12;;;;;;;14.50;1.60;;;;;;;;;;5002486;28;20406;-79
2023/10/20 14:46:39;;;;;;;14.10;1.40;;;;;;;;;;4995547;28;20590;-78
2023/10/20 14:49:06;;;;;;;14.20;1.40;;;;;;;;;;5018575;28;20467;-78
2023/10/20 14:51:32;;;;;;;15.02;1.33;;;;;;;;;;4999422;28;20413;-80
2023/10/20 14:53:59;;;;;;;15.10;1.40;;;;;;;;;;4994282;28;20435;-78
2023/10/20 14:56:26;;;;;;;14.50;1.40;;;;;;;;;;5008729;28;20491;-81
2023/10/20 14:58:56;;;;;;;14.50;1.60;;;;;;;;;;5004287;28;20424;-80
2023/10/20 15:01:33;;;;;;;14.18;1.30;;;;;;;;;;4996206;28;20877;-79
2023/10/20 15:04:17;;;;;;;14.70;1.70;;;;;;;;;;4997967;28;20431;-80
2023/10/20 15:06:56;;;;;;;14.90;1.50;;;;;;;;;;4993791;28;20845;-81
2023/10/20 15:09:23;;;;;;;14.00;1.30;;;;;;;;;;4982920;28;20412;-79
2023/10/20 15:11:51;;;;;;;14.80;1.40;;;;;;;;;;5012843;28;20415;-82
2023/10/20 15:14:19;;;;;;;15.20;1.60;;;;;;;;;;5003605;28;20416;-82